sensor_id;sensor_type;location;lat;lon;timestamp;P1;durP1;ratioP1;P2;durP2;ratioP2
58990;SDS011;44781;53.444;14.476;2023-05-10T00:01:13;8.30;;;4.00;;
58990;SDS011;44781;53.444;14.476;2023-05-10T00:03:45;7.60;;;4.00;;
58990;SDS011;44781;53.444;14.476;2023-05-10T00:06:12;7.10;;;3.80;;
58990;SDS011;44781;53.444;14.476;2023-05-10T00:08:39;7.70;;;3.90;;
58990;SDS011;44781;53.444;14.476;2023-05-10T00:11:06;7.80;;;4.10;;
58990;SDS011;44781;53.444;14.476;2023-05-10T00:13:36;7.70;;;4.00;;
58990;SDS011;44781;53.444;14.476;2023-05-10T00:16:03;8.10;;;4.30;;
58990;SDS011;44781;53.444;14.476;2023-05-10T00:18:30;7.80;;;4.30;;
58990;SDS011;44781;53.444;14.476;2023-05-10T00:20:56;7.10;;;4.10;;
58990;SDS011;44781;53.444;14.476;2023-05-10T00:23:23;9.30;;;4.70;;
58990;SDS011;44781;53.444;14.476;2023-05-10T00:25:50;7.50;;;3.80;;
58990;SDS011;44781;53.444;14.476;2023-05-10T00:28:17;8.00;;;4.30;;
58990;SDS011;44781;53.444;14.476;2023-05-10T00:30:44;6.80;;;3.90;;
58990;SDS011;44781;53.444;14.476;2023-05-10T00:33:11;7.60;;;4.00;;
58990;SDS011;44781;53.444;14.476;2023-05-10T00:35:38;6.80;;;4.20;;
58990;SDS011;44781;53.444;14.476;2023-05-10T00:38:05;7.60;;;3.80;;
58990;SDS011;44781;53.444;14.476;2023-05-10T00:40:32;6.60;;;3.70;;
58990;SDS011;44781;53.444;14.476;2023-05-10T00:43:03;7.60;;;4.00;;
58990;SDS011;44781;53.444;14.476;2023-05-10T00:45:30;7.40;;;3.80;;
58990;SDS011;44781;53.444;14.476;2023-05-10T00:48:00;7.20;;;4.20;;
58990;SDS011;44781;53.444;14.476;2023-05-10T00:50:30;7.60;;;4.00;;
58990;SDS011;44781;53.444;14.476;2023-05-10T00:52:59;7.60;;;4.30;;
58990;SDS011;44781;53.444;14.476;2023-05-10T00:55:27;6.80;;;4.30;;
58990;SDS011;44781;53.444;14.476;2023-05-10T00:57:54;7.00;;;4.20;;
58990;SDS011;44781;53.444;14.476;2023-05-10T01:00:22;6.90;;;4.00;;
58990;SDS011;44781;53.444;14.476;2023-05-10T01:02:50;8.90;;;4.30;;
58990;SDS011;44781;53.444;14.476;2023-05-10T01:05:17;8.50;;;4.50;;
58990;SDS011;44781;53.444;14.476;2023-05-10T01:07:44;7.10;;;4.10;;
58990;SDS011;44781;53.444;14.476;2023-05-10T01:10:12;7.70;;;4.70;;
58990;SDS011;44781;53.444;14.476;2023-05-10T01:12:40;8.20;;;4.60;;
58990;SDS011;44781;53.444;14.476;2023-05-10T01:15:09;6.90;;;4.30;;
58990;SDS011;44781;53.444;14.476;2023-05-10T01:17:38;9.40;;;4.80;;
58990;SDS011;44781;53.444;14.476;2023-05-10T01:20:07;7.40;;;4.60;;
58990;SDS011;44781;53.444;14.476;2023-05-10T01:28:34;7.40;;;4.80;;
58990;SDS011;44781;53.444;14.476;2023-05-10T01:34:23;7.30;;;4.30;;
58990;SDS011;44781;53.444;14.476;2023-05-10T01:37:15;6.90;;;4.50;;
58990;SDS011;44781;53.444;14.476;2023-05-10T01:39:55;7.20;;;4.30;;
58990;SDS011;44781;53.444;14.476;2023-05-10T01:42:45;8.80;;;4.50;;
58990;SDS011;44781;53.444;14.476;2023-05-10T01:47:43;8.40;;;4.90;;
58990;SDS011;44781;53.444;14.476;2023-05-10T01:50:24;6.90;;;4.50;;
58990;SDS011;44781;53.444;14.476;2023-05-10T01:52:56;8.30;;;5.10;;
58990;SDS011;44781;53.444;14.476;2023-05-10T01:55:29;7.50;;;4.70;;
58990;SDS011;44781;53.444;14.476;2023-05-10T01:58:02;7.40;;;4.70;;
58990;SDS011;44781;53.444;14.476;2023-05-10T02:00:32;9.50;;;4.90;;
58990;SDS011;44781;53.444;14.476;2023-05-10T02:03:03;7.70;;;4.80;;
58990;SDS011;44781;53.444;14.476;2023-05-10T02:05:33;10.80;;;5.20;;
58990;SDS011;44781;53.444;14.476;2023-05-10T02:08:01;7.40;;;4.60;;
58990;SDS011;44781;53.444;14.476;2023-05-10T02:10:32;9.30;;;5.50;;
58990;SDS011;44781;53.444;14.476;2023-05-10T02:13:01;8.70;;;5.30;;
58990;SDS011;44781;53.444;14.476;2023-05-10T02:15:29;9.10;;;4.80;;
58990;SDS011;44781;53.444;14.476;2023-05-10T02:17:59;8.30;;;5.50;;
58990;SDS011;44781;53.444;14.476;2023-05-10T02:20:29;8.00;;;4.70;;
58990;SDS011;44781;53.444;14.476;2023-05-10T02:22:59;8.30;;;5.00;;
58990;SDS011;44781;53.444;14.476;2023-05-10T02:25:27;9.70;;;5.30;;
58990;SDS011;44781;53.444;14.476;2023-05-10T02:27:56;7.20;;;4.70;;
58990;SDS011;44781;53.444;14.476;2023-05-10T02:30:24;7.90;;;5.00;;
58990;SDS011;44781;53.444;14.476;2023-05-10T02:32:52;9.10;;;4.80;;
58990;SDS011;44781;53.444;14.476;2023-05-10T02:35:19;8.80;;;4.70;;
58990;SDS011;44781;53.444;14.476;2023-05-10T02:37:48;8.00;;;5.40;;
58990;SDS011;44781;53.444;14.476;2023-05-10T02:40:15;8.70;;;4.90;;
58990;SDS011;44781;53.444;14.476;2023-05-10T02:42:44;8.00;;;4.80;;
58990;SDS011;44781;53.444;14.476;2023-05-10T02:45:20;8.30;;;4.80;;
58990;SDS011;44781;53.444;14.476;2023-05-10T02:47:51;9.10;;;4.60;;
58990;SDS011;44781;53.444;14.476;2023-05-10T02:50:21;8.30;;;4.70;;
58990;SDS011;44781;53.444;14.476;2023-05-10T02:52:52;9.90;;;5.00;;
58990;SDS011;44781;53.444;14.476;2023-05-10T02:55:27;8.00;;;4.80;;
58990;SDS011;44781;53.444;14.476;2023-05-10T02:57:59;8.80;;;4.70;;
58990;SDS011;44781;53.444;14.476;2023-05-10T03:00:27;8.20;;;5.10;;
58990;SDS011;44781;53.444;14.476;2023-05-10T03:02:55;9.60;;;5.20;;
58990;SDS011;44781;53.444;14.476;2023-05-10T03:05:22;8.10;;;4.70;;
58990;SDS011;44781;53.444;14.476;2023-05-10T03:07:49;9.80;;;5.00;;
58990;SDS011;44781;53.444;14.476;2023-05-10T03:10:18;8.50;;;4.80;;
58990;SDS011;44781;53.444;14.476;2023-05-10T03:15:37;8.60;;;4.70;;
58990;SDS011;44781;53.444;14.476;2023-05-10T03:18:21;10.40;;;4.90;;
58990;SDS011;44781;53.444;14.476;2023-05-10T03:23:22;13.10;;;5.40;;
58990;SDS011;44781;53.444;14.476;2023-05-10T03:25:55;7.80;;;4.80;;
58990;SDS011;44781;53.444;14.476;2023-05-10T03:28:23;8.10;;;4.80;;
58990;SDS011;44781;53.444;14.476;2023-05-10T03:30:53;9.10;;;5.20;;
58990;SDS011;44781;53.444;14.476;2023-05-10T03:33:21;9.60;;;5.50;;
58990;SDS011;44781;53.444;14.476;2023-05-10T03:35:48;8.80;;;5.20;;
58990;SDS011;44781;53.444;14.476;2023-05-10T03:38:15;7.80;;;5.10;;
58990;SDS011;44781;53.444;14.476;2023-05-10T03:40:42;8.20;;;5.20;;
58990;SDS011;44781;53.444;14.476;2023-05-10T03:43:09;10.20;;;5.40;;
58990;SDS011;44781;53.444;14.476;2023-05-10T03:45:36;10.40;;;5.50;;
58990;SDS011;44781;53.444;14.476;2023-05-10T03:48:03;8.40;;;5.10;;
58990;SDS011;44781;53.444;14.476;2023-05-10T03:50:31;8.50;;;5.10;;
58990;SDS011;44781;53.444;14.476;2023-05-10T03:52:57;10.10;;;5.80;;
58990;SDS011;44781;53.444;14.476;2023-05-10T03:55:24;9.10;;;5.60;;
58990;SDS011;44781;53.444;14.476;2023-05-10T03:57:51;8.70;;;5.50;;
58990;SDS011;44781;53.444;14.476;2023-05-10T04:00:21;8.10;;;5.00;;
58990;SDS011;44781;53.444;14.476;2023-05-10T04:02:50;10.10;;;6.00;;
58990;SDS011;44781;53.444;14.476;2023-05-10T04:05:19;8.30;;;5.30;;
58990;SDS011;44781;53.444;14.476;2023-05-10T04:07:46;10.10;;;5.30;;
58990;SDS011;44781;53.444;14.476;2023-05-10T04:10:13;8.40;;;5.70;;
58990;SDS011;44781;53.444;14.476;2023-05-10T04:12:40;8.40;;;5.10;;
58990;SDS011;44781;53.444;14.476;2023-05-10T04:15:08;10.70;;;5.70;;
58990;SDS011;44781;53.444;14.476;2023-05-10T04:17:35;11.40;;;5.60;;
58990;SDS011;44781;53.444;14.476;2023-05-10T04:20:02;9.00;;;5.70;;
58990;SDS011;44781;53.444;14.476;2023-05-10T04:22:30;10.70;;;6.00;;
58990;SDS011;44781;53.444;14.476;2023-05-10T04:24:58;9.50;;;5.10;;
58990;SDS011;44781;53.444;14.476;2023-05-10T04:27:25;10.10;;;6.10;;
58990;SDS011;44781;53.444;14.476;2023-05-10T04:29:52;10.00;;;6.00;;
58990;SDS011;44781;53.444;14.476;2023-05-10T04:32:19;9.10;;;5.60;;
58990;SDS011;44781;53.444;14.476;2023-05-10T04:34:46;13.90;;;6.20;;
58990;SDS011;44781;53.444;14.476;2023-05-10T04:37:13;9.40;;;6.00;;
58990;SDS011;44781;53.444;14.476;2023-05-10T04:39:40;12.40;;;6.10;;
58990;SDS011;44781;53.444;14.476;2023-05-10T04:42:12;9.60;;;5.90;;
58990;SDS011;44781;53.444;14.476;2023-05-10T04:44:41;9.00;;;5.90;;
58990;SDS011;44781;53.444;14.476;2023-05-10T04:47:08;8.70;;;5.50;;
58990;SDS011;44781;53.444;14.476;2023-05-10T04:49:35;10.00;;;6.20;;
58990;SDS011;44781;53.444;14.476;2023-05-10T04:52:02;8.90;;;5.60;;
58990;SDS011;44781;53.444;14.476;2023-05-10T04:54:30;8.60;;;5.20;;
58990;SDS011;44781;53.444;14.476;2023-05-10T04:56:57;10.20;;;6.30;;
58990;SDS011;44781;53.444;14.476;2023-05-10T04:59:24;9.80;;;5.80;;
58990;SDS011;44781;53.444;14.476;2023-05-10T05:01:50;9.70;;;5.50;;
58990;SDS011;44781;53.444;14.476;2023-05-10T05:04:17;10.90;;;6.10;;
58990;SDS011;44781;53.444;14.476;2023-05-10T05:06:44;8.50;;;5.90;;
58990;SDS011;44781;53.444;14.476;2023-05-10T05:09:11;11.00;;;6.20;;
58990;SDS011;44781;53.444;14.476;2023-05-10T05:11:38;9.40;;;6.30;;
58990;SDS011;44781;53.444;14.476;2023-05-10T05:14:07;10.80;;;5.90;;
58990;SDS011;44781;53.444;14.476;2023-05-10T05:16:33;8.60;;;5.90;;
58990;SDS011;44781;53.444;14.476;2023-05-10T05:19:04;9.20;;;6.10;;
58990;SDS011;44781;53.444;14.476;2023-05-10T05:21:31;10.40;;;5.30;;
58990;SDS011;44781;53.444;14.476;2023-05-10T05:24:00;8.80;;;5.40;;
58990;SDS011;44781;53.444;14.476;2023-05-10T05:26:30;10.20;;;6.00;;
58990;SDS011;44781;53.444;14.476;2023-05-10T05:28:59;9.50;;;5.90;;
58990;SDS011;44781;53.444;14.476;2023-05-10T05:31:26;9.90;;;5.30;;
58990;SDS011;44781;53.444;14.476;2023-05-10T05:33:54;10.20;;;5.30;;
58990;SDS011;44781;53.444;14.476;2023-05-10T05:36:22;10.30;;;5.10;;
58990;SDS011;44781;53.444;14.476;2023-05-10T05:38:50;11.70;;;5.70;;
58990;SDS011;44781;53.444;14.476;2023-05-10T05:41:17;14.50;;;5.90;;
58990;SDS011;44781;53.444;14.476;2023-05-10T05:43:44;8.70;;;5.40;;
58990;SDS011;44781;53.444;14.476;2023-05-10T05:46:11;9.20;;;5.50;;
58990;SDS011;44781;53.444;14.476;2023-05-10T05:48:40;10.20;;;5.60;;
58990;SDS011;44781;53.444;14.476;2023-05-10T05:51:09;11.90;;;5.60;;
58990;SDS011;44781;53.444;14.476;2023-05-10T05:53:37;9.30;;;5.50;;
58990;SDS011;44781;53.444;14.476;2023-05-10T05:56:04;8.70;;;5.20;;
58990;SDS011;44781;53.444;14.476;2023-05-10T05:58:34;9.60;;;5.80;;
58990;SDS011;44781;53.444;14.476;2023-05-10T06:01:02;11.00;;;5.50;;
58990;SDS011;44781;53.444;14.476;2023-05-10T06:03:29;11.60;;;6.00;;
58990;SDS011;44781;53.444;14.476;2023-05-10T06:05:56;10.70;;;5.60;;
58990;SDS011;44781;53.444;14.476;2023-05-10T06:08:23;10.50;;;5.90;;
58990;SDS011;44781;53.444;14.476;2023-05-10T06:10:50;9.10;;;5.10;;
58990;SDS011;44781;53.444;14.476;2023-05-10T06:13:17;8.60;;;5.10;;
58990;SDS011;44781;53.444;14.476;2023-05-10T06:15:44;7.80;;;4.80;;
58990;SDS011;44781;53.444;14.476;2023-05-10T06:18:12;9.10;;;4.70;;
58990;SDS011;44781;53.444;14.476;2023-05-10T06:20:40;9.60;;;5.10;;
58990;SDS011;44781;53.444;14.476;2023-05-10T06:23:09;9.90;;;5.00;;
58990;SDS011;44781;53.444;14.476;2023-05-10T06:25:36;7.70;;;4.60;;
58990;SDS011;44781;53.444;14.476;2023-05-10T06:28:03;15.80;;;6.00;;
58990;SDS011;44781;53.444;14.476;2023-05-10T06:30:31;9.30;;;4.50;;
58990;SDS011;44781;53.444;14.476;2023-05-10T06:32:58;7.60;;;4.60;;
58990;SDS011;44781;53.444;14.476;2023-05-10T06:35:25;10.30;;;4.50;;
58990;SDS011;44781;53.444;14.476;2023-05-10T06:37:52;8.80;;;4.40;;
58990;SDS011;44781;53.444;14.476;2023-05-10T06:40:19;9.30;;;4.80;;
58990;SDS011;44781;53.444;14.476;2023-05-10T06:42:47;8.40;;;4.30;;
58990;SDS011;44781;53.444;14.476;2023-05-10T06:45:14;6.90;;;4.40;;
58990;SDS011;44781;53.444;14.476;2023-05-10T06:47:42;6.60;;;4.30;;
58990;SDS011;44781;53.444;14.476;2023-05-10T06:50:09;7.90;;;4.10;;
58990;SDS011;44781;53.444;14.476;2023-05-10T06:52:37;7.90;;;4.50;;
58990;SDS011;44781;53.444;14.476;2023-05-10T06:55:05;8.30;;;4.50;;
58990;SDS011;44781;53.444;14.476;2023-05-10T06:57:32;8.40;;;4.40;;
58990;SDS011;44781;53.444;14.476;2023-05-10T06:59:59;7.90;;;4.20;;
58990;SDS011;44781;53.444;14.476;2023-05-10T07:02:29;7.70;;;3.90;;
58990;SDS011;44781;53.444;14.476;2023-05-10T07:05:00;9.00;;;4.20;;
58990;SDS011;44781;53.444;14.476;2023-05-10T07:07:35;8.40;;;3.60;;
58990;SDS011;44781;53.444;14.476;2023-05-10T07:10:10;9.10;;;4.50;;
58990;SDS011;44781;53.444;14.476;2023-05-10T07:12:44;7.70;;;3.90;;
58990;SDS011;44781;53.444;14.476;2023-05-10T07:15:12;6.80;;;3.40;;
58990;SDS011;44781;53.444;14.476;2023-05-10T07:17:40;8.30;;;3.50;;
58990;SDS011;44781;53.444;14.476;2023-05-10T07:20:09;6.00;;;3.40;;
58990;SDS011;44781;53.444;14.476;2023-05-10T07:22:37;8.50;;;3.90;;
58990;SDS011;44781;53.444;14.476;2023-05-10T07:25:06;6.90;;;3.30;;
58990;SDS011;44781;53.444;14.476;2023-05-10T07:27:33;7.30;;;3.70;;
58990;SDS011;44781;53.444;14.476;2023-05-10T07:30:00;6.20;;;3.30;;
58990;SDS011;44781;53.444;14.476;2023-05-10T07:32:28;8.20;;;3.40;;
58990;SDS011;44781;53.444;14.476;2023-05-10T07:34:55;6.50;;;3.60;;
58990;SDS011;44781;53.444;14.476;2023-05-10T07:37:22;8.90;;;3.50;;
58990;SDS011;44781;53.444;14.476;2023-05-10T07:39:51;6.20;;;3.60;;
58990;SDS011;44781;53.444;14.476;2023-05-10T07:42:18;8.40;;;3.70;;
58990;SDS011;44781;53.444;14.476;2023-05-10T07:44:47;7.10;;;3.50;;
58990;SDS011;44781;53.444;14.476;2023-05-10T07:47:18;6.70;;;3.60;;
58990;SDS011;44781;53.444;14.476;2023-05-10T07:49:47;8.50;;;3.50;;
58990;SDS011;44781;53.444;14.476;2023-05-10T07:52:19;6.30;;;3.50;;
58990;SDS011;44781;53.444;14.476;2023-05-10T07:54:46;9.50;;;3.90;;
58990;SDS011;44781;53.444;14.476;2023-05-10T07:57:15;6.90;;;3.50;;
58990;SDS011;44781;53.444;14.476;2023-05-10T07:59:44;10.60;;;3.70;;
58990;SDS011;44781;53.444;14.476;2023-05-10T08:02:14;7.40;;;3.90;;
58990;SDS011;44781;53.444;14.476;2023-05-10T08:04:42;8.00;;;3.70;;
58990;SDS011;44781;53.444;14.476;2023-05-10T08:07:15;8.30;;;3.90;;
58990;SDS011;44781;53.444;14.476;2023-05-10T08:09:44;7.60;;;3.30;;
58990;SDS011;44781;53.444;14.476;2023-05-10T08:12:11;8.00;;;4.00;;
58990;SDS011;44781;53.444;14.476;2023-05-10T08:14:49;6.60;;;3.30;;
58990;SDS011;44781;53.444;14.476;2023-05-10T08:17:16;6.90;;;3.40;;
58990;SDS011;44781;53.444;14.476;2023-05-10T08:19:45;6.60;;;3.40;;
58990;SDS011;44781;53.444;14.476;2023-05-10T08:22:11;7.20;;;3.50;;
58990;SDS011;44781;53.444;14.476;2023-05-10T08:24:38;7.10;;;3.30;;
58990;SDS011;44781;53.444;14.476;2023-05-10T08:27:07;7.20;;;3.80;;
58990;SDS011;44781;53.444;14.476;2023-05-10T08:29:37;6.50;;;3.40;;
58990;SDS011;44781;53.444;14.476;2023-05-10T08:32:09;6.10;;;3.40;;
58990;SDS011;44781;53.444;14.476;2023-05-10T08:34:36;5.90;;;3.40;;
58990;SDS011;44781;53.444;14.476;2023-05-10T08:37:03;5.80;;;3.10;;
58990;SDS011;44781;53.444;14.476;2023-05-10T08:39:33;6.50;;;3.10;;
58990;SDS011;44781;53.444;14.476;2023-05-10T08:44:34;7.60;;;3.30;;
58990;SDS011;44781;53.444;14.476;2023-05-10T08:47:05;6.10;;;2.90;;
58990;SDS011;44781;53.444;14.476;2023-05-10T08:49:33;5.50;;;4.60;;
58990;SDS011;44781;53.444;14.476;2023-05-10T08:52:02;6.20;;;3.40;;
58990;SDS011;44781;53.444;14.476;2023-05-10T08:54:31;5.40;;;3.00;;
58990;SDS011;44781;53.444;14.476;2023-05-10T08:57:02;11.10;;;3.40;;
58990;SDS011;44781;53.444;14.476;2023-05-10T08:59:29;4.80;;;2.60;;
58990;SDS011;44781;53.444;14.476;2023-05-10T09:01:59;6.40;;;3.40;;
58990;SDS011;44781;53.444;14.476;2023-05-10T09:04:31;7.30;;;3.30;;
58990;SDS011;44781;53.444;14.476;2023-05-10T09:07:01;6.00;;;2.70;;
58990;SDS011;44781;53.444;14.476;2023-05-10T09:09:56;6.70;;;3.10;;
58990;SDS011;44781;53.444;14.476;2023-05-10T09:12:35;6.50;;;2.70;;
58990;SDS011;44781;53.444;14.476;2023-05-10T09:15:21;6.50;;;2.60;;
58990;SDS011;44781;53.444;14.476;2023-05-10T09:17:55;6.10;;;2.50;;
58990;SDS011;44781;53.444;14.476;2023-05-10T09:20:32;8.70;;;3.90;;
58990;SDS011;44781;53.444;14.476;2023-05-10T09:23:13;7.30;;;3.50;;
58990;SDS011;44781;53.444;14.476;2023-05-10T09:25:43;8.10;;;3.20;;
58990;SDS011;44781;53.444;14.476;2023-05-10T09:28:17;11.80;;;4.60;;
58990;SDS011;44781;53.444;14.476;2023-05-10T09:30:45;9.20;;;4.60;;
58990;SDS011;44781;53.444;14.476;2023-05-10T09:33:19;11.60;;;4.90;;
58990;SDS011;44781;53.444;14.476;2023-05-10T09:35:46;9.10;;;3.80;;
58990;SDS011;44781;53.444;14.476;2023-05-10T09:38:13;8.60;;;3.90;;
58990;SDS011;44781;53.444;14.476;2023-05-10T09:40:40;6.70;;;3.40;;
58990;SDS011;44781;53.444;14.476;2023-05-10T09:43:20;16.00;;;3.80;;
58990;SDS011;44781;53.444;14.476;2023-05-10T09:45:47;7.00;;;3.50;;
58990;SDS011;44781;53.444;14.476;2023-05-10T09:48:18;6.50;;;3.10;;
58990;SDS011;44781;53.444;14.476;2023-05-10T09:50:45;7.60;;;3.60;;
58990;SDS011;44781;53.444;14.476;2023-05-10T09:53:14;6.00;;;3.30;;
58990;SDS011;44781;53.444;14.476;2023-05-10T09:55:42;7.80;;;3.50;;
58990;SDS011;44781;53.444;14.476;2023-05-10T09:58:15;8.30;;;3.10;;
58990;SDS011;44781;53.444;14.476;2023-05-10T10:00:43;9.10;;;3.80;;
58990;SDS011;44781;53.444;14.476;2023-05-10T10:03:14;5.90;;;3.20;;
58990;SDS011;44781;53.444;14.476;2023-05-10T10:05:43;8.60;;;3.30;;
58990;SDS011;44781;53.444;14.476;2023-05-10T10:08:11;7.80;;;3.20;;
58990;SDS011;44781;53.444;14.476;2023-05-10T10:10:38;6.00;;;3.00;;
58990;SDS011;44781;53.444;14.476;2023-05-10T10:13:06;6.90;;;3.20;;
58990;SDS011;44781;53.444;14.476;2023-05-10T10:15:35;8.90;;;3.00;;
58990;SDS011;44781;53.444;14.476;2023-05-10T10:18:03;9.90;;;3.00;;
58990;SDS011;44781;53.444;14.476;2023-05-10T10:20:35;8.50;;;3.30;;
58990;SDS011;44781;53.444;14.476;2023-05-10T10:23:07;8.70;;;2.80;;
58990;SDS011;44781;53.444;14.476;2023-05-10T10:25:37;7.10;;;2.30;;
58990;SDS011;44781;53.444;14.476;2023-05-10T10:28:11;5.50;;;2.30;;
58990;SDS011;44781;53.444;14.476;2023-05-10T10:30:51;6.10;;;2.20;;
58990;SDS011;44781;53.444;14.476;2023-05-10T10:33:38;6.50;;;2.20;;
58990;SDS011;44781;53.444;14.476;2023-05-10T10:36:20;3.80;;;1.90;;
58990;SDS011;44781;53.444;14.476;2023-05-10T10:39:13;6.30;;;2.30;;
58990;SDS011;44781;53.444;14.476;2023-05-10T10:41:54;6.60;;;2.40;;
58990;SDS011;44781;53.444;14.476;2023-05-10T10:49:52;16.90;;;2.80;;
58990;SDS011;44781;53.444;14.476;2023-05-10T10:55:13;5.90;;;2.20;;
58990;SDS011;44781;53.444;14.476;2023-05-10T10:57:55;5.90;;;2.50;;
58990;SDS011;44781;53.444;14.476;2023-05-10T11:03:06;5.70;;;2.40;;
58990;SDS011;44781;53.444;14.476;2023-05-10T11:05:36;6.00;;;3.10;;
58990;SDS011;44781;53.444;14.476;2023-05-10T11:08:48;8.80;;;2.50;;
58990;SDS011;44781;53.444;14.476;2023-05-10T11:15:57;5.20;;;2.20;;
58990;SDS011;44781;53.444;14.476;2023-05-10T11:18:26;5.40;;;2.20;;
58990;SDS011;44781;53.444;14.476;2023-05-10T11:20:56;4.40;;;2.20;;
58990;SDS011;44781;53.444;14.476;2023-05-10T11:23:23;6.70;;;2.30;;
58990;SDS011;44781;53.444;14.476;2023-05-10T11:25:50;4.20;;;1.90;;
58990;SDS011;44781;53.444;14.476;2023-05-10T11:28:17;4.80;;;2.10;;
58990;SDS011;44781;53.444;14.476;2023-05-10T11:30:46;4.50;;;2.00;;
58990;SDS011;44781;53.444;14.476;2023-05-10T11:33:17;9.40;;;2.80;;
58990;SDS011;44781;53.444;14.476;2023-05-10T11:35:44;8.00;;;2.30;;
58990;SDS011;44781;53.444;14.476;2023-05-10T11:38:12;7.10;;;2.20;;
58990;SDS011;44781;53.444;14.476;2023-05-10T11:40:43;6.70;;;2.00;;
58990;SDS011;44781;53.444;14.476;2023-05-10T11:43:10;6.90;;;2.30;;
58990;SDS011;44781;53.444;14.476;2023-05-10T11:45:37;6.10;;;2.30;;
58990;SDS011;44781;53.444;14.476;2023-05-10T11:48:06;4.40;;;2.10;;
58990;SDS011;44781;53.444;14.476;2023-05-10T11:50:34;5.30;;;1.90;;
58990;SDS011;44781;53.444;14.476;2023-05-10T11:53:01;6.10;;;2.00;;
58990;SDS011;44781;53.444;14.476;2023-05-10T11:55:32;6.00;;;2.00;;
58990;SDS011;44781;53.444;14.476;2023-05-10T11:58:00;5.90;;;2.00;;
58990;SDS011;44781;53.444;14.476;2023-05-10T12:00:28;7.80;;;2.20;;
58990;SDS011;44781;53.444;14.476;2023-05-10T12:02:57;5.80;;;1.90;;
58990;SDS011;44781;53.444;14.476;2023-05-10T12:05:27;5.90;;;2.10;;
58990;SDS011;44781;53.444;14.476;2023-05-10T12:08:15;5.20;;;1.70;;
58990;SDS011;44781;53.444;14.476;2023-05-10T12:11:06;5.10;;;2.30;;
58990;SDS011;44781;53.444;14.476;2023-05-10T12:13:38;6.20;;;2.80;;
58990;SDS011;44781;53.444;14.476;2023-05-10T12:16:17;9.70;;;2.60;;
58990;SDS011;44781;53.444;14.476;2023-05-10T12:19:02;6.40;;;2.30;;
58990;SDS011;44781;53.444;14.476;2023-05-10T12:21:32;5.10;;;2.50;;
58990;SDS011;44781;53.444;14.476;2023-05-10T12:24:11;4.90;;;2.30;;
58990;SDS011;44781;53.444;14.476;2023-05-10T12:26:47;6.00;;;2.20;;
58990;SDS011;44781;53.444;14.476;2023-05-10T12:29:18;6.30;;;2.20;;
58990;SDS011;44781;53.444;14.476;2023-05-10T12:31:52;5.50;;;1.90;;
58990;SDS011;44781;53.444;14.476;2023-05-10T12:34:35;4.50;;;2.10;;
58990;SDS011;44781;53.444;14.476;2023-05-10T12:37:29;4.30;;;1.60;;
58990;SDS011;44781;53.444;14.476;2023-05-10T12:40:13;5.60;;;2.10;;
58990;SDS011;44781;53.444;14.476;2023-05-10T12:42:43;5.20;;;1.80;;
58990;SDS011;44781;53.444;14.476;2023-05-10T12:45:13;4.90;;;2.10;;
58990;SDS011;44781;53.444;14.476;2023-05-10T12:47:42;5.90;;;2.00;;
58990;SDS011;44781;53.444;14.476;2023-05-10T12:50:09;5.10;;;2.10;;
58990;SDS011;44781;53.444;14.476;2023-05-10T12:52:36;4.40;;;2.00;;
58990;SDS011;44781;53.444;14.476;2023-05-10T12:55:03;5.80;;;3.00;;
58990;SDS011;44781;53.444;14.476;2023-05-10T12:57:33;6.90;;;2.50;;
58990;SDS011;44781;53.444;14.476;2023-05-10T13:00:00;6.90;;;2.30;;
58990;SDS011;44781;53.444;14.476;2023-05-10T13:02:27;3.80;;;1.60;;
58990;SDS011;44781;53.444;14.476;2023-05-10T13:04:56;5.00;;;2.20;;
58990;SDS011;44781;53.444;14.476;2023-05-10T13:07:26;5.00;;;2.00;;
58990;SDS011;44781;53.444;14.476;2023-05-10T13:09:53;4.60;;;2.20;;
58990;SDS011;44781;53.444;14.476;2023-05-10T13:12:20;6.20;;;2.20;;
58990;SDS011;44781;53.444;14.476;2023-05-10T13:14:49;5.00;;;1.90;;
58990;SDS011;44781;53.444;14.476;2023-05-10T13:17:16;5.20;;;2.00;;
58990;SDS011;44781;53.444;14.476;2023-05-10T13:19:43;3.40;;;1.80;;
58990;SDS011;44781;53.444;14.476;2023-05-10T13:22:10;4.60;;;1.80;;
58990;SDS011;44781;53.444;14.476;2023-05-10T13:24:37;4.70;;;2.00;;
58990;SDS011;44781;53.444;14.476;2023-05-10T13:27:04;3.80;;;2.00;;
58990;SDS011;44781;53.444;14.476;2023-05-10T13:29:31;4.80;;;2.10;;
58990;SDS011;44781;53.444;14.476;2023-05-10T13:31:58;5.20;;;2.50;;
58990;SDS011;44781;53.444;14.476;2023-05-10T13:34:26;5.80;;;2.20;;
58990;SDS011;44781;53.444;14.476;2023-05-10T13:36:53;4.00;;;2.00;;
58990;SDS011;44781;53.444;14.476;2023-05-10T13:39:30;3.40;;;1.60;;
58990;SDS011;44781;53.444;14.476;2023-05-10T13:42:00;26.70;;;4.20;;
58990;SDS011;44781;53.444;14.476;2023-05-10T13:44:27;4.90;;;2.00;;
58990;SDS011;44781;53.444;14.476;2023-05-10T13:46:55;5.00;;;2.00;;
58990;SDS011;44781;53.444;14.476;2023-05-10T13:49:23;4.20;;;2.10;;
58990;SDS011;44781;53.444;14.476;2023-05-10T13:51:50;4.30;;;2.20;;
58990;SDS011;44781;53.444;14.476;2023-05-10T13:54:17;4.90;;;1.90;;
58990;SDS011;44781;53.444;14.476;2023-05-10T14:00:31;5.80;;;2.10;;
58990;SDS011;44781;53.444;14.476;2023-05-10T14:02:59;6.20;;;2.20;;
58990;SDS011;44781;53.444;14.476;2023-05-10T14:05:26;6.60;;;2.40;;
58990;SDS011;44781;53.444;14.476;2023-05-10T14:07:53;6.80;;;3.00;;
58990;SDS011;44781;53.444;14.476;2023-05-10T14:10:20;7.40;;;2.00;;
58990;SDS011;44781;53.444;14.476;2023-05-10T14:12:47;5.70;;;2.20;;
58990;SDS011;44781;53.444;14.476;2023-05-10T14:15:14;7.10;;;2.90;;
58990;SDS011;44781;53.444;14.476;2023-05-10T14:17:41;5.20;;;2.30;;
58990;SDS011;44781;53.444;14.476;2023-05-10T14:20:10;7.30;;;2.00;;
58990;SDS011;44781;53.444;14.476;2023-05-10T14:22:38;4.70;;;2.00;;
58990;SDS011;44781;53.444;14.476;2023-05-10T14:25:05;8.70;;;2.30;;
58990;SDS011;44781;53.444;14.476;2023-05-10T14:27:32;4.20;;;1.90;;
58990;SDS011;44781;53.444;14.476;2023-05-10T14:30:01;6.90;;;2.20;;
58990;SDS011;44781;53.444;14.476;2023-05-10T14:32:29;4.00;;;1.80;;
58990;SDS011;44781;53.444;14.476;2023-05-10T14:34:55;4.80;;;2.10;;
58990;SDS011;44781;53.444;14.476;2023-05-10T14:37:22;3.70;;;2.10;;
58990;SDS011;44781;53.444;14.476;2023-05-10T14:39:49;4.50;;;2.10;;
58990;SDS011;44781;53.444;14.476;2023-05-10T14:42:16;6.30;;;2.10;;
58990;SDS011;44781;53.444;14.476;2023-05-10T14:44:43;4.70;;;2.10;;
58990;SDS011;44781;53.444;14.476;2023-05-10T14:47:10;4.30;;;1.80;;
58990;SDS011;44781;53.444;14.476;2023-05-10T14:49:37;7.30;;;2.10;;
58990;SDS011;44781;53.444;14.476;2023-05-10T14:56:00;4.60;;;2.10;;
58990;SDS011;44781;53.444;14.476;2023-05-10T14:58:32;2.80;;;1.60;;
58990;SDS011;44781;53.444;14.476;2023-05-10T15:00:59;5.00;;;1.90;;
58990;SDS011;44781;53.444;14.476;2023-05-10T15:03:30;4.30;;;2.00;;
58990;SDS011;44781;53.444;14.476;2023-05-10T15:05:57;5.00;;;1.90;;
58990;SDS011;44781;53.444;14.476;2023-05-10T15:08:24;3.70;;;1.80;;
58990;SDS011;44781;53.444;14.476;2023-05-10T15:10:51;5.50;;;2.00;;
58990;SDS011;44781;53.444;14.476;2023-05-10T15:13:18;5.80;;;2.00;;
58990;SDS011;44781;53.444;14.476;2023-05-10T15:15:45;5.60;;;2.30;;
58990;SDS011;44781;53.444;14.476;2023-05-10T15:18:33;5.80;;;2.20;;
58990;SDS011;44781;53.444;14.476;2023-05-10T15:21:00;11.50;;;2.40;;
58990;SDS011;44781;53.444;14.476;2023-05-10T15:23:27;4.60;;;1.80;;
58990;SDS011;44781;53.444;14.476;2023-05-10T15:25:55;4.70;;;2.10;;
58990;SDS011;44781;53.444;14.476;2023-05-10T15:28:22;3.90;;;1.70;;
58990;SDS011;44781;53.444;14.476;2023-05-10T15:30:50;4.30;;;2.00;;